createdAt,value
2019-05-17T00:02:09.526Z,17.65
2019-05-17T00:04:40.191Z,18.25
2019-05-17T00:07:11.341Z,17.10
2019-05-17T00:09:42.025Z,17.40
2019-05-17T00:12:12.613Z,18.10
2019-05-17T00:14:43.506Z,15.83
2019-05-17T00:17:14.030Z,15.32
2019-05-17T00:19:46.501Z,16.85
2019-05-17T00:22:17.065Z,17.30
2019-05-17T00:24:47.860Z,16.65
2019-05-17T00:27:18.531Z,18.10
2019-05-17T00:29:49.550Z,17.67
2019-05-17T00:32:20.143Z,17.85
2019-05-17T00:34:50.979Z,18.55
2019-05-17T00:37:21.505Z,17.42
2019-05-17T00:39:52.078Z,18.02
2019-05-17T00:42:22.845Z,17.80
2019-05-17T00:44:53.338Z,18.30
2019-05-17T00:47:23.931Z,17.82
2019-05-17T00:49:56.838Z,17.20
2019-05-17T00:52:27.351Z,16.17
2019-05-17T00:54:58.091Z,17.02
2019-05-17T00:57:28.588Z,16.77
2019-05-17T00:59:59.213Z,17.50
2019-05-17T01:02:29.859Z,18.07
2019-05-17T01:05:00.442Z,17.70
2019-05-17T01:07:30.938Z,17.85
2019-05-17T01:10:01.854Z,17.25
2019-05-17T01:12:33.494Z,16.85
2019-05-17T01:15:09.821Z,18.55
2019-05-17T01:17:40.461Z,17.77
2019-05-17T01:20:11.534Z,18.48
2019-05-17T01:22:42.103Z,18.25
2019-05-17T01:25:13.439Z,17.67
2019-05-17T01:27:44.073Z,17.57
2019-05-17T01:30:14.730Z,18.48
2019-05-17T01:32:46.409Z,17.20
2019-05-17T01:35:17.510Z,17.87
2019-05-17T01:38:08.377Z,17.60
2019-05-17T01:40:39.149Z,18.00
2019-05-17T01:43:09.718Z,18.77
2019-05-17T01:45:40.387Z,18.35
2019-05-17T01:48:10.982Z,18.57
2019-05-17T01:50:41.789Z,18.12
2019-05-17T01:53:13.650Z,17.40
2019-05-17T01:55:46.482Z,17.32
2019-05-17T01:58:16.815Z,18.30
2019-05-17T02:00:47.455Z,17.35
2019-05-17T02:03:18.321Z,17.00
2019-05-17T02:05:49.078Z,18.70
2019-05-17T02:08:19.813Z,17.92
2019-05-17T02:10:50.500Z,17.77
2019-05-17T02:13:21.205Z,16.48
2019-05-17T02:15:51.854Z,17.65
2019-05-17T02:18:22.758Z,18.50
2019-05-17T02:20:53.326Z,17.50
2019-05-17T02:23:26.852Z,18.65
2019-05-17T02:25:57.113Z,18.32
2019-05-17T02:28:29.088Z,17.67
2019-05-17T02:31:03.432Z,18.15
2019-05-17T02:33:33.928Z,18.30
2019-05-17T02:36:04.639Z,18.25
2019-05-17T02:38:35.302Z,18.10
2019-05-17T02:41:06.064Z,18.65
2019-05-17T02:43:36.985Z,17.05
2019-05-17T02:46:07.667Z,17.82
2019-05-17T02:48:38.627Z,17.90
2019-05-17T02:51:12.757Z,18.35
2019-05-17T02:53:42.907Z,17.98
2019-05-17T02:56:13.955Z,16.77
2019-05-17T02:58:44.639Z,18.42
2019-05-17T03:01:15.440Z,17.65
2019-05-17T03:03:46.019Z,17.12
2019-05-17T03:06:17.197Z,18.48
2019-05-17T03:08:47.951Z,18.98
2019-05-17T03:11:22.439Z,17.48
2019-05-17T03:13:52.615Z,16.85
2019-05-17T03:16:23.887Z,17.52
2019-05-17T03:18:54.981Z,16.62
2019-05-17T03:21:25.568Z,17.80
2019-05-17T03:23:56.319Z,18.77
2019-05-17T03:26:26.843Z,19.25
2019-05-17T03:28:57.452Z,19.02
2019-05-17T03:31:34.307Z,16.65
2019-05-17T03:34:06.460Z,17.95
2019-05-17T03:36:36.259Z,17.32
2019-05-17T03:39:07.675Z,18.12
2019-05-17T03:41:38.323Z,18.27
2019-05-17T03:44:08.986Z,18.62
2019-05-17T03:46:42.360Z,19.10
2019-05-17T03:49:13.146Z,20.57
2019-05-17T03:51:44.260Z,18.75
2019-05-17T03:54:15.032Z,19.65
2019-05-17T03:56:47.065Z,18.15
2019-05-17T03:59:17.663Z,17.60
2019-05-17T04:01:48.604Z,18.82
2019-05-17T04:04:22.662Z,20.20
2019-05-17T04:06:52.595Z,19.87
2019-05-17T04:09:23.478Z,21.02
2019-05-17T04:11:54.393Z,20.23
2019-05-17T04:14:25.001Z,19.55
2019-05-17T04:16:55.563Z,20.10
2019-05-17T04:19:26.227Z,20.92
2019-05-17T04:21:56.871Z,21.37
2019-05-17T04:24:27.624Z,20.05
2019-05-17T04:26:58.323Z,21.00
2019-05-17T04:29:28.831Z,21.00
2019-05-17T04:31:59.591Z,20.02
2019-05-17T04:34:33.259Z,19.52
2019-05-17T04:37:04.321Z,21.70
2019-05-17T04:39:34.793Z,20.37
2019-05-17T04:42:05.667Z,20.32
2019-05-17T04:44:36.986Z,20.62
2019-05-17T04:47:07.719Z,21.62
2019-05-17T04:49:38.359Z,20.85
2019-05-17T04:52:10.034Z,20.57
2019-05-17T04:54:42.439Z,21.23
2019-05-17T04:57:13.327Z,21.45
2019-05-17T04:59:44.376Z,20.43
2019-05-17T05:02:15.418Z,20.12
2019-05-17T05:04:46.871Z,19.65
2019-05-17T05:07:17.569Z,20.70
2019-05-17T05:09:48.547Z,21.55
2019-05-17T05:12:19.073Z,19.98
2019-05-17T05:14:52.257Z,21.25
2019-05-17T05:17:23.432Z,22.10
2019-05-17T05:19:54.109Z,22.73
2019-05-17T05:22:24.712Z,22.07
2019-05-17T05:24:55.230Z,21.87
2019-05-17T05:27:26.058Z,21.93
2019-05-17T05:29:56.930Z,21.97
2019-05-17T05:32:27.704Z,22.85
2019-05-17T05:34:58.578Z,22.60
2019-05-17T05:37:29.393Z,21.65
2019-05-17T05:40:02.113Z,21.82
2019-05-17T05:42:32.724Z,21.42
2019-05-17T05:45:03.703Z,21.00
2019-05-17T05:47:34.322Z,20.82
2019-05-17T05:50:06.894Z,21.33
2019-05-17T05:52:37.458Z,20.45
2019-05-17T05:55:08.745Z,20.68
2019-05-17T05:57:41.637Z,20.32
2019-05-17T06:00:13.929Z,20.52
2019-05-17T06:02:44.570Z,18.98
2019-05-17T06:05:17.360Z,19.60
2019-05-17T06:07:48.047Z,19.65
2019-05-17T06:10:18.713Z,18.10
2019-05-17T06:12:51.626Z,19.40
2019-05-17T06:15:22.322Z,18.70
2019-05-17T06:17:52.898Z,18.77
2019-05-17T06:20:23.878Z,19.32
2019-05-17T06:22:54.601Z,19.65
2019-05-17T06:25:25.494Z,18.45
2019-05-17T06:27:56.153Z,19.92
2019-05-17T06:30:26.797Z,17.67
2019-05-17T06:32:57.329Z,18.85
2019-05-17T06:35:28.215Z,18.87
2019-05-17T06:37:58.814Z,17.30
2019-05-17T06:40:29.511Z,17.87
2019-05-17T06:43:03.981Z,18.77
2019-05-17T06:45:32.649Z,17.80
2019-05-17T06:48:04.362Z,17.85
2019-05-17T06:50:35.053Z,16.97
2019-05-17T06:53:05.737Z,16.10
2019-05-17T06:55:36.382Z,14.73
2019-05-17T06:58:07.167Z,14.75
2019-05-17T07:00:40.255Z,15.83
2019-05-17T07:03:10.181Z,14.65
2019-05-17T07:05:42.425Z,14.18
2019-05-17T07:08:12.928Z,14.30
2019-05-17T07:10:43.598Z,14.00
2019-05-17T07:13:14.290Z,13.90
2019-05-17T07:15:47.965Z,14.25
2019-05-17T07:18:19.367Z,13.13
2019-05-17T07:20:50.273Z,13.95
2019-05-17T07:23:21.051Z,14.00
2019-05-17T07:25:51.578Z,14.18
2019-05-17T07:28:22.084Z,13.98
2019-05-17T07:30:52.685Z,13.98
2019-05-17T07:33:23.646Z,14.35
2019-05-17T07:35:54.486Z,14.33
2019-05-17T07:38:25.178Z,13.85
2019-05-17T07:40:55.714Z,13.45
2019-05-17T07:43:26.433Z,14.65
2019-05-17T07:45:56.966Z,13.65
2019-05-17T07:48:27.579Z,13.25
2019-05-17T07:50:59.408Z,13.35
2019-05-17T07:53:30.828Z,12.85
2019-05-17T07:56:01.506Z,12.82
2019-05-17T07:58:32.225Z,12.00
2019-05-17T08:01:02.869Z,11.75
2019-05-17T08:03:33.582Z,12.45
2019-05-17T08:06:04.238Z,11.18
2019-05-17T08:08:34.947Z,11.25
2019-05-17T08:11:05.533Z,10.55
2019-05-17T08:13:36.132Z,10.78
2019-05-17T08:16:07.185Z,10.38
2019-05-17T08:18:40.111Z,11.80
2019-05-17T08:21:10.577Z,12.03
2019-05-17T08:23:41.543Z,10.55
2019-05-17T08:26:12.305Z,10.63
2019-05-17T08:28:42.846Z,11.05
2019-05-17T08:31:13.543Z,9.83
2019-05-17T08:33:44.149Z,10.80
2019-05-17T08:36:14.663Z,10.98
2019-05-17T08:38:45.547Z,10.95
2019-05-17T08:41:17.621Z,10.65
2019-05-17T08:43:51.176Z,10.88
2019-05-17T08:46:20.934Z,11.12
2019-05-17T08:48:51.610Z,10.75
2019-05-17T08:51:22.357Z,10.30
2019-05-17T08:53:53.026Z,10.10
2019-05-17T08:56:23.610Z,11.10
2019-05-17T08:58:55.217Z,10.70
2019-05-17T09:01:25.863Z,10.65
2019-05-17T09:03:56.510Z,10.18
2019-05-17T09:06:29.171Z,10.40
2019-05-17T09:09:00.803Z,9.93
2019-05-17T09:11:33.413Z,10.20
2019-05-17T09:14:04.557Z,11.10
2019-05-17T09:16:35.490Z,10.72
2019-05-17T09:19:06.168Z,10.25
2019-05-17T09:21:36.838Z,10.25
2019-05-17T09:24:10.246Z,10.85
2019-05-17T09:26:40.250Z,10.20
2019-05-17T09:29:11.000Z,10.98
2019-05-17T09:31:42.983Z,10.32
2019-05-17T09:34:13.633Z,10.20
2019-05-17T09:36:44.563Z,10.30
2019-05-17T09:39:15.226Z,10.13
2019-05-17T09:41:45.937Z,10.45
2019-05-17T09:44:16.689Z,10.70
2019-05-17T09:46:47.305Z,11.00
2019-05-17T09:49:19.296Z,11.48
2019-05-17T09:51:51.080Z,11.18
2019-05-17T09:54:37.118Z,11.40
2019-05-17T09:56:54.355Z,12.05
2019-05-17T09:59:25.019Z,12.20
2019-05-17T10:01:55.914Z,10.25
2019-05-17T10:04:26.466Z,10.65
2019-05-17T10:06:59.256Z,11.28
2019-05-17T10:09:29.160Z,9.55
2019-05-17T10:12:00.062Z,10.72
2019-05-17T10:14:31.388Z,8.98
2019-05-17T10:17:02.200Z,9.65
2019-05-17T10:19:32.946Z,8.78
2019-05-17T10:22:03.703Z,9.40
2019-05-17T10:24:38.826Z,10.32
2019-05-17T10:27:06.857Z,10.95
2019-05-17T10:29:39.349Z,9.45
2019-05-17T10:32:10.463Z,8.98
2019-05-17T10:34:42.331Z,10.35
2019-05-17T10:37:14.052Z,9.73
2019-05-17T10:39:45.607Z,9.65
2019-05-17T10:42:16.270Z,9.55
2019-05-17T10:44:47.913Z,9.38
2019-05-17T10:47:20.022Z,9.43
2019-05-17T10:49:50.735Z,9.10
2019-05-17T10:52:21.437Z,8.43
2019-05-17T10:54:52.001Z,8.08
2019-05-17T10:57:22.623Z,10.13
2019-05-17T10:59:53.595Z,8.10
2019-05-17T11:02:24.271Z,8.60
2019-05-17T11:04:55.268Z,8.23
2019-05-17T11:07:26.215Z,9.20
2019-05-17T11:09:56.775Z,7.92
2019-05-17T11:12:28.508Z,8.03
2019-05-17T11:15:10.398Z,8.23
2019-05-17T11:17:31.608Z,8.08
2019-05-17T11:20:02.345Z,7.72
2019-05-17T11:22:33.166Z,7.67
2019-05-17T11:25:06.139Z,6.80
2019-05-17T11:27:36.869Z,7.92
2019-05-17T11:30:08.569Z,7.08
2019-05-17T11:32:39.262Z,6.95
2019-05-17T11:35:10.219Z,6.97
2019-05-17T11:37:40.773Z,7.28
2019-05-17T11:40:11.814Z,6.50
2019-05-17T11:42:43.789Z,7.33
2019-05-17T11:45:27.452Z,5.47
2019-05-17T11:47:48.023Z,6.05
2019-05-17T11:50:18.998Z,6.40
2019-05-17T11:52:49.552Z,6.53
2019-05-17T11:55:20.318Z,6.03
2019-05-17T11:57:50.954Z,5.65
2019-05-17T12:00:23.083Z,5.67
2019-05-17T12:02:53.710Z,5.17
2019-05-17T12:05:24.620Z,5.30
2019-05-17T12:07:55.121Z,5.12
2019-05-17T12:10:25.935Z,4.87
2019-05-17T12:12:56.908Z,4.30
2019-05-17T12:15:42.241Z,5.67
2019-05-17T12:18:00.131Z,5.42
2019-05-17T12:20:30.761Z,4.90
2019-05-17T12:23:01.558Z,4.80
2019-05-17T12:25:32.231Z,6.65
2019-05-17T12:28:03.859Z,6.55
2019-05-17T12:30:34.495Z,5.22
2019-05-17T12:33:05.275Z,4.67
2019-05-17T12:35:35.974Z,4.70
2019-05-17T12:38:06.939Z,5.08
2019-05-17T12:40:37.615Z,5.05
2019-05-17T12:43:08.204Z,4.62
2019-05-17T12:45:39.735Z,4.25
2019-05-17T12:48:10.917Z,3.77
2019-05-17T12:50:41.630Z,4.85
2019-05-17T12:53:12.324Z,4.80
2019-05-17T12:55:44.355Z,6.05
2019-05-17T12:58:15.003Z,5.97
2019-05-17T13:00:45.567Z,5.95
2019-05-17T13:03:16.162Z,5.05
2019-05-17T13:05:47.086Z,4.90
2019-05-17T13:08:17.923Z,4.45
2019-05-17T13:10:48.439Z,6.42
2019-05-17T13:13:19.078Z,5.28
2019-05-17T13:15:49.938Z,4.50
2019-05-17T13:18:20.498Z,4.55
2019-05-17T13:20:51.162Z,5.20
2019-05-17T13:23:22.332Z,4.95
2019-05-17T13:25:53.884Z,4.10
2019-05-17T13:28:24.739Z,4.45
2019-05-17T13:30:55.721Z,4.83
2019-05-17T13:33:29.117Z,4.30
2019-05-17T13:35:58.654Z,4.28
2019-05-17T13:38:29.202Z,4.20
2019-05-17T13:40:59.790Z,3.87
2019-05-17T13:43:30.545Z,3.67
2019-05-17T13:46:01.603Z,3.45
2019-05-17T13:48:33.563Z,3.02
2019-05-17T13:51:04.336Z,3.60
2019-05-17T13:53:34.971Z,3.08
2019-05-17T13:56:05.631Z,2.85
2019-05-17T13:58:36.155Z,3.27
2019-05-17T14:01:06.830Z,3.95
2019-05-17T14:03:37.540Z,2.85
2019-05-17T14:06:08.271Z,3.62
2019-05-17T14:08:38.802Z,3.30
2019-05-17T14:11:09.585Z,2.50
2019-05-17T14:13:40.102Z,3.17
2019-05-17T14:16:10.594Z,2.80
2019-05-17T14:18:41.264Z,2.90
2019-05-17T14:21:12.178Z,3.10
2019-05-17T14:23:43.083Z,2.80
2019-05-17T14:26:14.112Z,2.98
2019-05-17T14:28:45.062Z,2.62
2019-05-17T14:31:15.643Z,3.10
2019-05-17T14:33:46.225Z,3.33
2019-05-17T14:36:16.865Z,2.47
2019-05-17T14:38:47.607Z,2.95
2019-05-17T14:41:18.306Z,2.55
2019-05-17T14:43:49.283Z,2.58
2019-05-17T14:46:20.191Z,2.60
2019-05-17T14:48:50.712Z,2.45
2019-05-17T14:51:22.421Z,2.80
2019-05-17T14:53:53.333Z,2.27
2019-05-17T14:56:25.411Z,1.92
2019-05-17T14:58:56.227Z,2.10
2019-05-17T15:01:26.927Z,1.90
2019-05-17T15:03:57.426Z,1.75
2019-05-17T15:06:28.057Z,1.75
2019-05-17T15:08:58.621Z,2.00
2019-05-17T15:11:29.333Z,1.60
2019-05-17T15:13:59.898Z,1.40
2019-05-17T15:16:30.510Z,2.20
2019-05-17T15:19:01.107Z,2.10
2019-05-17T15:21:32.029Z,1.70
2019-05-17T15:24:03.971Z,2.12
2019-05-17T15:26:35.754Z,1.95
2019-05-17T15:29:07.647Z,1.77
2019-05-17T15:31:38.416Z,1.90
2019-05-17T15:34:09.053Z,1.82
2019-05-17T15:36:39.614Z,1.80
2019-05-17T15:39:10.262Z,1.87
2019-05-17T15:41:40.937Z,1.98
2019-05-17T15:44:11.522Z,1.50
2019-05-17T15:46:42.159Z,1.80
2019-05-17T15:49:12.782Z,1.87
2019-05-17T15:51:43.524Z,1.50
2019-05-17T15:54:14.229Z,5.00
2019-05-17T15:56:44.731Z,1.30
2019-05-17T15:59:15.333Z,1.35
2019-05-17T16:01:46.287Z,1.20
2019-05-17T16:04:16.880Z,1.20
2019-05-17T16:06:47.520Z,1.30
2019-05-17T16:09:18.404Z,1.12
2019-05-17T16:11:48.995Z,1.70
2019-05-17T16:14:19.650Z,1.40
2019-05-17T16:16:50.180Z,1.65
2019-05-17T16:19:20.820Z,1.90
2019-05-17T16:21:51.501Z,1.67
2019-05-17T16:24:21.997Z,1.57
2019-05-17T16:26:52.591Z,1.30
2019-05-17T16:29:23.079Z,1.70
2019-05-17T16:31:53.594Z,1.45
2019-05-17T16:34:24.399Z,1.35
2019-05-17T16:36:54.916Z,1.60
2019-05-17T16:39:25.474Z,1.80
2019-05-17T16:41:56.558Z,2.00
2019-05-17T16:44:27.107Z,1.50
2019-05-17T16:46:57.765Z,1.70
2019-05-17T16:49:28.645Z,1.60
2019-05-17T16:51:59.442Z,1.50
2019-05-17T16:54:30.416Z,1.60
2019-05-17T16:57:01.118Z,1.55
2019-05-17T16:59:31.687Z,1.65
2019-05-17T17:02:02.471Z,2.00
2019-05-17T17:04:33.080Z,1.60
2019-05-17T17:07:03.739Z,1.75
2019-05-17T17:09:34.967Z,1.37
2019-05-17T17:12:05.954Z,1.52
2019-05-17T17:14:36.651Z,1.57
2019-05-17T17:17:11.427Z,1.47
2019-05-17T17:19:39.563Z,1.40
2019-05-17T17:22:10.055Z,1.35
2019-05-17T17:24:40.709Z,1.60
2019-05-17T17:27:11.355Z,2.00
2019-05-17T17:29:42.128Z,1.85
2019-05-17T17:32:21.186Z,1.72
2019-05-17T17:34:45.270Z,1.87
2019-05-17T17:37:15.835Z,2.00
2019-05-17T17:39:46.942Z,2.02
2019-05-17T17:42:17.887Z,2.15
2019-05-17T17:44:48.493Z,2.17
2019-05-17T17:47:22.430Z,2.12
2019-05-17T17:49:53.908Z,2.20
2019-05-17T17:52:25.540Z,2.10
2019-05-17T17:54:56.317Z,1.95
2019-05-17T17:57:26.950Z,1.80
2019-05-17T17:59:57.684Z,1.87
2019-05-17T18:02:28.421Z,1.90
2019-05-17T18:04:59.147Z,14.03
2019-05-17T18:07:29.703Z,4.17
2019-05-17T18:10:00.218Z,5.33
2019-05-17T18:12:30.816Z,2.25
2019-05-17T18:15:04.421Z,3.92
2019-05-17T18:17:39.192Z,1.90
2019-05-17T18:20:06.370Z,1.70
2019-05-17T18:22:37.241Z,1.72
2019-05-17T18:25:08.078Z,1.50
2019-05-17T18:27:38.667Z,1.55
2019-05-17T18:30:09.737Z,1.60
2019-05-17T18:32:40.509Z,1.62
2019-05-17T18:35:11.357Z,1.60
2019-05-17T18:37:42.016Z,1.42
2019-05-17T18:40:13.213Z,1.98
2019-05-17T18:42:44.019Z,1.90
2019-05-17T18:45:15.513Z,1.90
2019-05-17T18:47:46.135Z,1.70
2019-05-17T18:50:16.891Z,2.27
2019-05-17T18:52:47.557Z,1.80
2019-05-17T18:55:18.285Z,2.02
2019-05-17T18:57:49.490Z,2.10
2019-05-17T19:00:20.350Z,2.10
2019-05-17T19:02:51.002Z,1.90
2019-05-17T19:05:21.751Z,2.10
2019-05-17T19:07:52.407Z,2.20
2019-05-17T19:10:23.063Z,1.80
2019-05-17T19:12:53.576Z,1.80
2019-05-17T19:15:24.343Z,1.65
2019-05-17T19:17:54.929Z,2.35
2019-05-17T19:20:25.576Z,1.90
2019-05-17T19:22:56.538Z,2.10
2019-05-17T19:25:27.103Z,2.05
2019-05-17T19:27:57.873Z,2.35
2019-05-17T19:30:28.503Z,1.87
2019-05-17T19:32:59.458Z,2.00
2019-05-17T19:35:30.211Z,2.08
2019-05-17T19:38:00.832Z,2.12
2019-05-17T19:40:31.475Z,1.90
2019-05-17T19:43:02.404Z,2.40
2019-05-17T19:45:33.038Z,2.10
2019-05-17T19:48:03.731Z,2.08
2019-05-17T19:50:34.370Z,2.58
2019-05-17T19:53:05.214Z,2.52
2019-05-17T19:55:35.775Z,2.22
2019-05-17T19:58:06.556Z,2.25
2019-05-17T20:00:37.155Z,2.30
2019-05-17T20:03:07.996Z,1.85
2019-05-17T20:05:38.563Z,2.45
2019-05-17T20:08:23.079Z,2.00
2019-05-17T20:10:53.714Z,2.00
2019-05-17T20:13:25.146Z,2.10
2019-05-17T20:15:56.960Z,2.12
2019-05-17T20:18:28.243Z,2.20
2019-05-17T20:20:58.799Z,2.05
2019-05-17T20:23:29.779Z,2.02
2019-05-17T20:26:01.374Z,2.47
2019-05-17T20:28:32.123Z,2.00
2019-05-17T20:31:02.738Z,2.00
2019-05-17T20:33:33.359Z,2.15
2019-05-17T20:36:04.135Z,2.30
2019-05-17T20:38:34.767Z,2.20
2019-05-17T20:41:05.615Z,2.15
2019-05-17T20:43:36.255Z,4.08
2019-05-17T20:46:06.981Z,4.10
2019-05-17T20:48:37.483Z,3.05
2019-05-17T20:51:08.138Z,2.75
2019-05-17T20:53:38.642Z,2.75
2019-05-17T20:56:09.306Z,2.98
2019-05-17T20:58:40.050Z,3.02
2019-05-17T21:01:10.745Z,2.87
2019-05-17T21:03:41.759Z,3.17
2019-05-17T21:06:12.413Z,2.83
2019-05-17T21:08:45.867Z,3.10
2019-05-17T21:11:15.598Z,2.95
2019-05-17T21:13:46.380Z,2.80
2019-05-17T21:16:16.985Z,2.90
2019-05-17T21:18:47.657Z,2.83
2019-05-17T21:21:18.231Z,3.10
2019-05-17T21:23:48.839Z,3.27
2019-05-17T21:26:19.545Z,3.15
2019-05-17T21:28:50.161Z,3.05
2019-05-17T21:31:20.754Z,3.17
2019-05-17T21:33:51.346Z,3.30
2019-05-17T21:36:21.953Z,3.10
2019-05-17T21:38:52.882Z,3.10
2019-05-17T21:41:23.514Z,3.37
2019-05-17T21:43:54.218Z,3.90
2019-05-17T21:46:24.715Z,7.00
2019-05-17T21:48:55.615Z,8.35
2019-05-17T21:51:26.114Z,5.92
2019-05-17T21:53:56.750Z,4.40
2019-05-17T21:56:27.331Z,3.70
2019-05-17T21:58:57.862Z,3.72
2019-05-17T22:01:30.186Z,3.50
2019-05-17T22:04:01.041Z,4.12
2019-05-17T22:06:31.746Z,4.20
2019-05-17T22:09:02.702Z,4.03
2019-05-17T22:11:36.013Z,4.40
2019-05-17T22:14:06.796Z,3.90
2019-05-17T22:16:37.446Z,3.62
2019-05-17T22:19:08.190Z,3.62
2019-05-17T22:21:39.221Z,3.75
2019-05-17T22:24:09.907Z,4.10
2019-05-17T22:26:40.419Z,3.60
2019-05-17T22:29:11.065Z,3.90
2019-05-17T22:31:41.652Z,4.00
2019-05-17T22:34:12.225Z,3.90
2019-05-17T22:36:42.827Z,3.77
2019-05-17T22:39:13.409Z,4.00
2019-05-17T22:41:46.013Z,3.90
2019-05-17T22:44:16.570Z,3.62
2019-05-17T22:46:47.232Z,3.90
2019-05-17T22:49:17.844Z,4.00
2019-05-17T22:51:48.733Z,4.47
2019-05-17T22:54:19.665Z,4.15
2019-05-17T22:56:50.371Z,3.75
2019-05-17T22:59:21.054Z,3.67
2019-05-17T23:01:52.098Z,4.40
2019-05-17T23:04:22.902Z,4.00
2019-05-17T23:06:53.967Z,4.22
2019-05-17T23:09:24.587Z,4.47
2019-05-17T23:11:55.233Z,4.40
2019-05-17T23:14:25.749Z,4.10
2019-05-17T23:16:56.246Z,4.20
2019-05-17T23:19:26.869Z,3.65
2019-05-17T23:21:57.374Z,3.90
2019-05-17T23:24:27.997Z,4.33
2019-05-17T23:26:58.671Z,4.10
2019-05-17T23:29:29.762Z,4.40
2019-05-17T23:32:00.320Z,4.45
2019-05-17T23:34:31.017Z,3.80
2019-05-17T23:37:01.946Z,4.42
2019-05-17T23:39:32.537Z,4.45
2019-05-17T23:42:03.216Z,4.83
2019-05-17T23:44:34.054Z,3.83
2019-05-17T23:47:07.401Z,4.33
2019-05-17T23:49:37.299Z,4.05
2019-05-17T23:52:07.821Z,4.60
2019-05-17T23:54:38.668Z,3.98
2019-05-17T23:57:09.421Z,3.72
2019-05-17T23:59:39.877Z,3.90
